Time;durP1;ratioP1;P1;durP2;ratioP2;P2;SDS_P1;SDS_P2;PMS_P1;PMS_P2;Temp;Humidity;BMP_temperature;BMP_pressure;BME280_temperature;BME280_humidity;BME280_pressure;Samples;Min_cycle;Max_cycle;Signal;HPM_P1;HPM_P2
2022/07/05 00:00:36;;;;;;;1.45;0.90;;;;;;;;;;5049027;28;20029;-77
2022/07/05 00:03:02;;;;;;;4.35;0.93;;;;;;;;;;5049125;28;20045;-77
2022/07/05 00:05:27;;;;;;;3.28;1.25;;;;;;;;;;5032486;28;20042;-77
2022/07/05 00:07:53;;;;;;;1.70;0.68;;;;;;;;;;5048901;28;20127;-77
2022/07/05 00:10:18;;;;;;;3.08;0.70;;;;;;;;;;5049124;28;20037;-77
2022/07/05 00:12:44;;;;;;;1.95;0.75;;;;;;;;;;5049099;28;20511;-77
2022/07/05 00:15:09;;;;;;;1.70;0.65;;;;;;;;;;5048726;28;20423;-77
2022/07/05 00:17:35;;;;;;;2.50;0.93;;;;;;;;;;5016052;28;20056;-77
2022/07/05 00:20:00;;;;;;;1.65;0.40;;;;;;;;;;5027578;28;20103;-77
2022/07/05 00:22:26;;;;;;;1.30;0.70;;;;;;;;;;5012346;28;20030;-78
2022/07/05 00:24:51;;;;;;;1.23;0.55;;;;;;;;;;4996227;28;20073;-77
2022/07/05 00:27:17;;;;;;;2.28;0.85;;;;;;;;;;5012576;28;20447;-77
2022/07/05 00:29:42;;;;;;;2.92;0.88;;;;;;;;;;5028674;28;20057;-77
2022/07/05 00:32:08;;;;;;;1.50;0.65;;;;;;;;;;5028868;28;20064;-77
2022/07/05 00:34:33;;;;;;;1.67;0.70;;;;;;;;;;5012492;28;20042;-77
2022/07/05 00:36:59;;;;;;;2.45;1.00;;;;;;;;;;5012294;28;20096;-77
2022/07/05 00:39:24;;;;;;;1.75;0.70;;;;;;;;;;5028501;28;20042;-77
2022/07/05 00:41:49;;;;;;;1.63;0.60;;;;;;;;;;5012120;28;20042;-78
2022/07/05 00:44:15;;;;;;;3.50;0.93;;;;;;;;;;5030832;28;20038;-78
2022/07/05 00:46:42;;;;;;;1.80;1.00;;;;;;;;;;5031959;28;20030;-78
2022/07/05 00:49:08;;;;;;;1.60;0.70;;;;;;;;;;5015323;28;20399;-78
2022/07/05 00:51:36;;;;;;;2.55;0.90;;;;;;;;;;5047560;28;20042;-79
2022/07/05 00:54:02;;;;;;;1.35;0.70;;;;;;;;;;5048279;28;20041;-78
2022/07/05 00:56:27;;;;;;;2.58;0.90;;;;;;;;;;5015318;28;20056;-78
2022/07/05 00:58:53;;;;;;;1.67;0.80;;;;;;;;;;5047990;28;20045;-78
2022/07/05 01:01:19;;;;;;;1.30;0.77;;;;;;;;;;5048264;28;20514;-78
2022/07/05 01:03:44;;;;;;;2.30;0.80;;;;;;;;;;5048262;28;20045;-78
2022/07/05 01:06:11;;;;;;;4.10;1.10;;;;;;;;;;5031002;28;20048;-78
2022/07/05 01:08:41;;;;;;;1.15;0.65;;;;;;;;;;5031186;28;20057;-78
2022/07/05 01:11:07;;;;;;;1.30;0.63;;;;;;;;;;5031457;28;20033;-77
2022/07/05 01:13:33;;;;;;;1.80;0.55;;;;;;;;;;5014062;28;20120;-78
2022/07/05 01:15:59;;;;;;;2.75;0.82;;;;;;;;;;5014799;28;20041;-77
2022/07/05 01:18:24;;;;;;;1.38;0.75;;;;;;;;;;4998286;28;20484;-78
2022/07/05 01:20:50;;;;;;;1.65;0.80;;;;;;;;;;5014582;28;20037;-78
2022/07/05 01:23:16;;;;;;;4.18;0.82;;;;;;;;;;4998387;28;20116;-77
2022/07/05 01:25:42;;;;;;;1.42;0.68;;;;;;;;;;5014973;28;20033;-78
2022/07/05 01:28:08;;;;;;;1.88;0.80;;;;;;;;;;4998131;28;20072;-78
2022/07/05 01:30:35;;;;;;;1.48;0.80;;;;;;;;;;5014240;28;20029;-77
2022/07/05 01:33:01;;;;;;;3.35;0.80;;;;;;;;;;5015098;28;20037;-77
2022/07/05 01:35:26;;;;;;;1.15;0.40;;;;;;;;;;4997595;28;20026;-78
2022/07/05 01:37:52;;;;;;;1.30;0.60;;;;;;;;;;4997972;28;20103;-77
2022/07/05 01:40:18;;;;;;;1.83;0.70;;;;;;;;;;5014709;28;20103;-78
2022/07/05 01:42:43;;;;;;;2.80;0.80;;;;;;;;;;5014698;28;20380;-77
2022/07/05 01:45:09;;;;;;;2.53;0.75;;;;;;;;;;4994460;28;20080;-77
2022/07/05 01:47:36;;;;;;;3.00;0.88;;;;;;;;;;4978295;28;20191;-78
2022/07/05 01:50:01;;;;;;;3.10;0.65;;;;;;;;;;5001759;28;20034;-78
2022/07/05 01:52:27;;;;;;;1.42;0.63;;;;;;;;;;5030903;28;20133;-78
2022/07/05 01:54:52;;;;;;;1.73;0.75;;;;;;;;;;5047311;28;20566;-77
2022/07/05 01:57:18;;;;;;;2.05;0.60;;;;;;;;;;5047350;28;20037;-78
2022/07/05 01:59:43;;;;;;;1.52;0.73;;;;;;;;;;5045665;28;20029;-78
2022/07/05 02:02:09;;;;;;;4.68;1.05;;;;;;;;;;4997355;28;20220;-78
2022/07/05 02:04:35;;;;;;;2.13;0.70;;;;;;;;;;5014062;28;20033;-80
2022/07/05 02:07:05;;;;;;;1.80;0.68;;;;;;;;;;5030592;28;20046;-80
2022/07/05 02:09:30;;;;;;;2.55;0.70;;;;;;;;;;5030375;28;20045;-80
2022/07/05 02:11:56;;;;;;;1.75;0.60;;;;;;;;;;5013777;28;20111;-80
2022/07/05 02:14:21;;;;;;;1.77;0.63;;;;;;;;;;5030577;28;20060;-78
2022/07/05 02:16:47;;;;;;;1.25;0.70;;;;;;;;;;4997479;28;20454;-77
2022/07/05 02:19:12;;;;;;;2.20;0.85;;;;;;;;;;5010521;28;20165;-77
2022/07/05 02:21:38;;;;;;;2.35;0.85;;;;;;;;;;5010900;28;20083;-78
2022/07/05 02:24:04;;;;;;;1.40;0.85;;;;;;;;;;5026945;28;20038;-77
2022/07/05 02:26:29;;;;;;;1.70;0.82;;;;;;;;;;5027094;28;20061;-78
2022/07/05 02:28:55;;;;;;;1.00;0.63;;;;;;;;;;5026816;28;20121;-77
2022/07/05 02:31:20;;;;;;;2.38;0.90;;;;;;;;;;5009359;28;20104;-77
2022/07/05 02:33:46;;;;;;;1.42;0.70;;;;;;;;;;5030338;28;20045;-78
2022/07/05 02:36:12;;;;;;;2.67;0.73;;;;;;;;;;5030449;28;20045;-77
2022/07/05 02:38:38;;;;;;;1.52;0.60;;;;;;;;;;5013809;28;20038;-78
2022/07/05 02:41:10;;;;;;;2.45;1.17;;;;;;;;;;5013588;28;20030;-77
2022/07/05 02:43:35;;;;;;;;;;;;;;;;;;5014287;28;20033;-79
2022/07/05 02:46:01;;;;;;;1.95;0.80;;;;;;;;;;5026823;28;20052;-78
2022/07/05 02:48:27;;;;;;;1.77;0.70;;;;;;;;;;5026430;28;20052;-78
2022/07/05 02:50:52;;;;;;;1.55;1.00;;;;;;;;;;5041452;28;20045;-78
2022/07/05 02:53:18;;;;;;;2.63;0.90;;;;;;;;;;5030307;28;20041;-79
2022/07/05 02:55:43;;;;;;;1.23;0.50;;;;;;;;;;5046765;28;20052;-78
2022/07/05 02:58:09;;;;;;;2.65;0.90;;;;;;;;;;5030506;28;20045;-78
2022/07/05 03:00:34;;;;;;;1.92;0.93;;;;;;;;;;5046556;28;20041;-78
2022/07/05 03:03:00;;;;;;;3.60;1.45;;;;;;;;;;5029760;28;20076;-78
2022/07/05 03:05:25;;;;;;;4.72;1.15;;;;;;;;;;5029845;28;20056;-78
2022/07/05 03:07:51;;;;;;;3.03;0.90;;;;;;;;;;5046225;28;20060;-78
2022/07/05 03:10:16;;;;;;;1.63;0.93;;;;;;;;;;5046529;28;20041;-78
2022/07/05 03:12:41;;;;;;;2.65;1.30;;;;;;;;;;5046770;28;20038;-78
2022/07/05 03:15:07;;;;;;;2.45;0.90;;;;;;;;;;5049707;28;20111;-77
2022/07/05 03:17:33;;;;;;;1.88;0.93;;;;;;;;;;5033496;28;20037;-77
2022/07/05 03:19:58;;;;;;;2.83;0.88;;;;;;;;;;5033430;28;20116;-77
2022/07/05 03:22:25;;;;;;;3.65;1.40;;;;;;;;;;5032664;28;20049;-77
2022/07/05 03:24:50;;;;;;;2.72;0.77;;;;;;;;;;5033466;28;20046;-77
2022/07/05 03:27:16;;;;;;;3.20;1.30;;;;;;;;;;5000870;28;20381;-80
2022/07/05 03:29:41;;;;;;;1.77;1.35;;;;;;;;;;5033142;28;20038;-78
2022/07/05 03:32:08;;;;;;;2.75;1.05;;;;;;;;;;5016644;28;20045;-79
2022/07/05 03:34:33;;;;;;;1.83;0.82;;;;;;;;;;5016932;28;20087;-78
2022/07/05 03:36:59;;;;;;;2.55;0.93;;;;;;;;;;5000368;28;20029;-78
2022/07/05 03:39:24;;;;;;;3.50;1.10;;;;;;;;;;5016656;28;20053;-78
2022/07/05 03:41:50;;;;;;;2.72;1.00;;;;;;;;;;5016407;28;20056;-79
2022/07/05 03:44:15;;;;;;;2.67;1.05;;;;;;;;;;5032656;28;20037;-78
2022/07/05 03:46:41;;;;;;;2.67;1.33;;;;;;;;;;5016205;28;20029;-78
2022/07/05 03:49:06;;;;;;;3.30;1.50;;;;;;;;;;5016330;28;20030;-78
2022/07/05 03:51:32;;;;;;;2.67;1.15;;;;;;;;;;5016722;28;20120;-78
2022/07/05 03:53:57;;;;;;;2.47;1.13;;;;;;;;;;5032595;28;20038;-78
2022/07/05 03:56:23;;;;;;;2.28;1.25;;;;;;;;;;5049688;28;20038;-78
2022/07/05 03:58:49;;;;;;;2.63;1.00;;;;;;;;;;5049222;28;20036;-78
2022/07/05 04:01:14;;;;;;;1.67;0.90;;;;;;;;;;5048901;28;20029;-78
2022/07/05 04:03:40;;;;;;;2.70;0.98;;;;;;;;;;5032855;28;20044;-78
2022/07/05 04:06:06;;;;;;;1.65;1.00;;;;;;;;;;5048630;28;20407;-78
2022/07/05 04:08:31;;;;;;;4.63;1.48;;;;;;;;;;5048902;28;20388;-78
2022/07/05 04:10:57;;;;;;;3.22;1.58;;;;;;;;;;5049199;28;20033;-78
2022/07/05 04:13:22;;;;;;;2.75;1.23;;;;;;;;;;5015860;28;20069;-78
2022/07/05 04:15:48;;;;;;;2.28;1.27;;;;;;;;;;5047598;28;20372;-80
2022/07/05 04:18:13;;;;;;;2.90;1.30;;;;;;;;;;5032252;28;20040;-78
2022/07/05 04:20:39;;;;;;;3.00;1.48;;;;;;;;;;5015946;28;20034;-78
2022/07/05 04:23:04;;;;;;;2.75;1.65;;;;;;;;;;5016020;28;20048;-78
2022/07/05 04:25:30;;;;;;;2.83;1.30;;;;;;;;;;4999690;28;20045;-78
2022/07/05 04:27:55;;;;;;;2.63;1.58;;;;;;;;;;4999374;28;20048;-78
2022/07/05 04:30:22;;;;;;;5.25;1.80;;;;;;;;;;4999308;28;20049;-77
2022/07/05 04:32:48;;;;;;;3.75;1.58;;;;;;;;;;5016077;28;20534;-78
2022/07/05 04:35:13;;;;;;;3.40;1.40;;;;;;;;;;5015368;28;20046;-78
2022/07/05 04:37:39;;;;;;;2.25;1.33;;;;;;;;;;4999127;28;20036;-78
2022/07/05 04:40:05;;;;;;;3.72;1.67;;;;;;;;;;5015422;28;20408;-78
2022/07/05 04:42:31;;;;;;;4.10;1.80;;;;;;;;;;4999233;28;20072;-78
2022/07/05 04:44:57;;;;;;;3.80;1.95;;;;;;;;;;5011867;28;20052;-78
2022/07/05 04:47:23;;;;;;;3.53;1.73;;;;;;;;;;4995974;28;20030;-78
2022/07/05 04:49:48;;;;;;;3.58;1.40;;;;;;;;;;5017398;28;20041;-78
2022/07/05 04:52:14;;;;;;;3.22;1.95;;;;;;;;;;5031908;28;20032;-78
2022/07/05 04:54:39;;;;;;;3.80;1.85;;;;;;;;;;5031628;28;20049;-78
2022/07/05 04:57:04;;;;;;;3.80;1.90;;;;;;;;;;5048161;28;20107;-78
2022/07/05 04:59:30;;;;;;;3.53;1.67;;;;;;;;;;5015742;28;20466;-79
2022/07/05 05:01:56;;;;;;;3.40;1.30;;;;;;;;;;5031403;28;20040;-78
2022/07/05 05:04:22;;;;;;;3.42;1.50;;;;;;;;;;5031562;28;20523;-79
2022/07/05 05:06:47;;;;;;;5.32;1.90;;;;;;;;;;5014839;28;20060;-78
2022/07/05 05:09:12;;;;;;;5.20;1.65;;;;;;;;;;5030588;28;20045;-79
2022/07/05 05:11:38;;;;;;;4.25;1.70;;;;;;;;;;5010647;28;20037;-78
2022/07/05 05:14:03;;;;;;;3.47;1.77;;;;;;;;;;5014608;28;20115;-79
2022/07/05 05:16:29;;;;;;;3.22;1.52;;;;;;;;;;5031001;28;20403;-78
2022/07/05 05:18:54;;;;;;;2.10;1.30;;;;;;;;;;5031086;28;20553;-78
2022/07/05 05:21:20;;;;;;;3.03;1.90;;;;;;;;;;5015057;28;20049;-78
2022/07/05 05:23:46;;;;;;;3.03;1.38;;;;;;;;;;4998616;28;20053;-79
2022/07/05 05:26:12;;;;;;;3.33;1.48;;;;;;;;;;5014475;28;20037;-78
2022/07/05 05:28:38;;;;;;;3.80;1.30;;;;;;;;;;5014563;28;20046;-79
2022/07/05 05:31:04;;;;;;;7.03;1.70;;;;;;;;;;5014578;28;20033;-78
2022/07/05 05:33:29;;;;;;;4.28;1.75;;;;;;;;;;5014814;28;20045;-78
2022/07/05 05:35:55;;;;;;;3.15;1.23;;;;;;;;;;5013629;28;20041;-78
2022/07/05 05:38:21;;;;;;;4.82;1.50;;;;;;;;;;4997825;28;20412;-78
2022/07/05 05:40:46;;;;;;;4.43;1.83;;;;;;;;;;5014415;28;20107;-78
2022/07/05 05:43:12;;;;;;;2.85;1.77;;;;;;;;;;5014712;28;20399;-78
2022/07/05 05:45:37;;;;;;;5.25;1.50;;;;;;;;;;5010836;28;20033;-77
2022/07/05 05:48:03;;;;;;;3.92;1.90;;;;;;;;;;5011077;28;20046;-77
2022/07/05 05:50:38;;;;;;;3.50;1.30;;;;;;;;;;5005753;28;20042;-78
2022/07/05 05:53:04;;;;;;;5.82;1.73;;;;;;;;;;5014644;28;20045;-77
2022/07/05 05:55:30;;;;;;;3.10;1.40;;;;;;;;;;5030537;28;20179;-78
2022/07/05 05:57:57;;;;;;;2.88;1.58;;;;;;;;;;5030411;28;20041;-77
2022/07/05 06:00:22;;;;;;;5.75;1.85;;;;;;;;;;5047067;28;20496;-77
2022/07/05 06:02:49;;;;;;;3.85;1.60;;;;;;;;;;5030648;28;20044;-77
2022/07/05 06:05:14;;;;;;;3.97;1.70;;;;;;;;;;5016966;28;20107;-78
2022/07/05 06:07:53;;;;;;;4.68;1.42;;;;;;;;;;4994691;28;20500;-78
2022/07/05 06:10:21;;;;;;;3.72;1.58;;;;;;;;;;5010560;28;20042;-78
2022/07/05 06:12:46;;;;;;;3.28;0.88;;;;;;;;;;4994867;28;20504;-78
2022/07/05 06:15:12;;;;;;;2.38;1.27;;;;;;;;;;4993876;28;20030;-78
2022/07/05 06:17:37;;;;;;;4.35;1.80;;;;;;;;;;5008943;28;20040;-78
2022/07/05 06:20:11;;;;;;;4.57;1.38;;;;;;;;;;5016808;28;20059;-78
2022/07/05 06:22:37;;;;;;;5.32;1.33;;;;;;;;;;5029938;28;20499;-78
2022/07/05 06:25:03;;;;;;;3.33;1.52;;;;;;;;;;5046642;28;20077;-78
2022/07/05 06:27:28;;;;;;;5.72;1.38;;;;;;;;;;5046775;28;20056;-78
2022/07/05 06:29:54;;;;;;;4.95;1.30;;;;;;;;;;5046708;28;20036;-77
2022/07/05 06:32:19;;;;;;;5.97;1.77;;;;;;;;;;5046325;28;20037;-78
2022/07/05 06:34:45;;;;;;;4.97;1.67;;;;;;;;;;5037652;28;20041;-77
2022/07/05 06:37:10;;;;;;;7.47;3.15;;;;;;;;;;5013950;28;20045;-77
2022/07/05 06:39:36;;;;;;;7.50;2.90;;;;;;;;;;5029586;28;20052;-77
2022/07/05 06:42:02;;;;;;;6.18;2.83;;;;;;;;;;5013175;28;20049;-77
2022/07/05 06:44:28;;;;;;;6.07;2.83;;;;;;;;;;5028147;28;20462;-78
2022/07/05 06:46:53;;;;;;;8.38;3.03;;;;;;;;;;5012377;28;20140;-77
2022/07/05 06:49:18;;;;;;;9.27;4.45;;;;;;;;;;5032262;28;20033;-78
2022/07/05 06:51:44;;;;;;;7.60;3.70;;;;;;;;;;5050446;28;20037;-78
2022/07/05 06:54:09;;;;;;;6.00;3.10;;;;;;;;;;5050217;28;20037;-78
2022/07/05 06:56:35;;;;;;;6.47;2.50;;;;;;;;;;5050369;28;20042;-78
2022/07/05 06:59:00;;;;;;;8.68;3.25;;;;;;;;;;5033908;28;20056;-79
2022/07/05 07:01:26;;;;;;;6.72;2.63;;;;;;;;;;5049967;28;20037;-77
2022/07/05 07:03:51;;;;;;;5.35;3.00;;;;;;;;;;5031181;28;20037;-78
2022/07/05 07:06:17;;;;;;;6.55;2.42;;;;;;;;;;5049782;28;20034;-78
2022/07/05 07:09:42;;;;;;;3.72;1.95;;;;;;;;;;5016753;28;20414;-78
2022/07/05 07:11:37;;;;;;;5.15;2.03;;;;;;;;;;5024550;28;20041;-78
2022/07/05 07:14:02;;;;;;;4.70;2.05;;;;;;;;;;5033429;28;20095;-78
2022/07/05 07:16:27;;;;;;;6.63;2.42;;;;;;;;;;5000649;28;20034;-78
2022/07/05 07:18:53;;;;;;;6.40;1.77;;;;;;;;;;5030305;28;20422;-78
2022/07/05 07:21:18;;;;;;;5.70;2.95;;;;;;;;;;5032807;28;20029;-78
2022/07/05 07:23:44;;;;;;;4.88;2.17;;;;;;;;;;5033141;28;20450;-79
2022/07/05 07:26:09;;;;;;;4.72;1.85;;;;;;;;;;5033094;28;20522;-78
2022/07/05 07:28:35;;;;;;;7.25;2.28;;;;;;;;;;5033061;28;20112;-78
2022/07/05 07:31:00;;;;;;;3.15;1.38;;;;;;;;;;5016361;28;20107;-78
2022/07/05 07:33:26;;;;;;;2.67;1.75;;;;;;;;;;5032898;28;20065;-78
2022/07/05 07:35:51;;;;;;;3.75;1.63;;;;;;;;;;5016409;28;20557;-78
2022/07/05 07:38:20;;;;;;;3.00;1.70;;;;;;;;;;4997601;28;20500;-79
2022/07/05 07:40:45;;;;;;;4.80;2.15;;;;;;;;;;4980614;28;20587;-77
2022/07/05 07:43:11;;;;;;;2.28;1.10;;;;;;;;;;4997145;28;20073;-77
2022/07/05 07:45:36;;;;;;;5.65;1.55;;;;;;;;;;4990170;28;20038;-78
2022/07/05 07:48:02;;;;;;;4.60;1.83;;;;;;;;;;5013084;28;20030;-77
2022/07/05 07:50:27;;;;;;;4.05;1.25;;;;;;;;;;5016432;28;20076;-77
2022/07/05 07:52:53;;;;;;;5.63;1.90;;;;;;;;;;5032271;28;20541;-79
2022/07/05 07:55:18;;;;;;;4.60;1.55;;;;;;;;;;5049432;28;20120;-78
2022/07/05 07:57:44;;;;;;;4.00;1.50;;;;;;;;;;5049370;28;20439;-79
2022/07/05 08:00:09;;;;;;;3.67;1.30;;;;;;;;;;5048443;28;20431;-79
2022/07/05 08:02:35;;;;;;;4.30;1.45;;;;;;;;;;5049310;28;20033;-79
2022/07/05 08:05:01;;;;;;;5.00;1.35;;;;;;;;;;5031966;28;20120;-79
2022/07/05 08:07:27;;;;;;;2.92;1.02;;;;;;;;;;5015647;28;20041;-80
2022/07/05 08:09:52;;;;;;;2.58;1.30;;;;;;;;;;5015336;28;20080;-79
2022/07/05 08:12:18;;;;;;;6.82;1.90;;;;;;;;;;4999843;28;20033;-81
2022/07/05 08:14:44;;;;;;;5.65;2.05;;;;;;;;;;5015914;28;20410;-80
2022/07/05 08:17:09;;;;;;;4.18;1.40;;;;;;;;;;5015837;28;20059;-81
2022/07/05 08:22:19;;;;;;;3.33;1.10;;;;;;;;;;5026046;28;20038;-81
2022/07/05 08:24:46;;;;;;;3.25;1.27;;;;;;;;;;5012579;28;20044;-81
2022/07/05 08:27:11;;;;;;;5.35;1.45;;;;;;;;;;5012512;28;20113;-82
2022/07/05 08:29:37;;;;;;;4.15;1.50;;;;;;;;;;5011969;28;20044;-80
2022/07/05 08:32:03;;;;;;;2.63;1.10;;;;;;;;;;4995975;28;20034;-80
2022/07/05 08:34:28;;;;;;;4.10;1.02;;;;;;;;;;5012211;28;20041;-81
2022/07/05 08:36:53;;;;;;;3.22;1.00;;;;;;;;;;4995815;28;20034;-79
2022/07/05 08:39:19;;;;;;;3.13;1.63;;;;;;;;;;4984467;28;20136;-80
2022/07/05 08:41:49;;;;;;;7.22;1.15;;;;;;;;;;5016296;28;20034;-80
2022/07/05 08:44:16;;;;;;;4.80;1.88;;;;;;;;;;4998277;28;20078;-81
2022/07/05 08:46:41;;;;;;;5.47;1.77;;;;;;;;;;4997948;28;20068;-79
2022/07/05 08:49:07;;;;;;;2.90;1.50;;;;;;;;;;5015249;28;20037;-79
2022/07/05 08:51:34;;;;;;;3.10;1.55;;;;;;;;;;5015931;28;20109;-80
2022/07/05 08:53:59;;;;;;;3.58;1.27;;;;;;;;;;5028885;28;20037;-79
2022/07/05 08:56:25;;;;;;;3.25;1.17;;;;;;;;;;5015333;28;20091;-80
2022/07/05 08:58:50;;;;;;;2.60;0.95;;;;;;;;;;5022727;28;20409;-79
2022/07/05 09:01:16;;;;;;;4.50;1.27;;;;;;;;;;4978959;28;20026;-80
2022/07/05 09:03:49;;;;;;;5.47;1.98;;;;;;;;;;4995059;28;20037;-79
2022/07/05 09:06:19;;;;;;;3.60;1.38;;;;;;;;;;4995348;28;20041;-79
2022/07/05 09:08:44;;;;;;;4.75;1.58;;;;;;;;;;4978652;28;20431;-79
2022/07/05 09:11:12;;;;;;;4.47;1.23;;;;;;;;;;4994764;28;20042;-80
2022/07/05 09:13:43;;;;;;;4.47;1.30;;;;;;;;;;4979363;28;20091;-80
2022/07/05 09:16:08;;;;;;;3.83;0.85;;;;;;;;;;4979249;28;20026;-80
2022/07/05 09:18:54;;;;;;;1.77;0.80;;;;;;;;;;4995878;28;20064;-80
2022/07/05 09:21:19;;;;;;;1.83;0.80;;;;;;;;;;5026969;28;20034;-80
2022/07/05 09:23:53;;;;;;;4.30;1.17;;;;;;;;;;5010231;28;20531;-81
2022/07/05 09:26:18;;;;;;;4.07;1.00;;;;;;;;;;5010167;28;20033;-81
2022/07/05 09:28:56;;;;;;;3.22;1.00;;;;;;;;;;5010594;28;20440;-81
2022/07/05 09:31:35;;;;;;;3.35;0.65;;;;;;;;;;5010141;28;20030;-81
2022/07/05 09:34:20;;;;;;;5.47;1.40;;;;;;;;;;4997471;28;20108;-80
2022/07/05 09:37:06;;;;;;;1.40;0.63;;;;;;;;;;5009736;28;20048;-81
2022/07/05 09:39:52;;;;;;;4.70;0.82;;;;;;;;;;5018912;28;20048;-81
2022/07/05 09:42:38;;;;;;;5.88;1.10;;;;;;;;;;5030764;28;20038;-81
2022/07/05 09:45:24;;;;;;;3.38;0.75;;;;;;;;;;5015663;28;20049;-81
2022/07/05 09:48:10;;;;;;;5.75;1.10;;;;;;;;;;5030846;28;20037;-81
2022/07/05 09:51:04;;;;;;;4.60;0.68;;;;;;;;;;5016205;28;20045;-82
2022/07/05 09:53:52;;;;;;;4.15;0.70;;;;;;;;;;5029370;28;20209;-82
2022/07/05 09:56:47;;;;;;;2.33;0.85;;;;;;;;;;5017549;28;20042;-82
2022/07/05 09:59:33;;;;;;;3.42;0.60;;;;;;;;;;5030563;28;20087;-82
2022/07/05 10:02:47;;;;;;;5.57;1.38;;;;;;;;;;5018061;28;20095;-82
2022/07/05 10:05:32;;;;;;;3.42;0.80;;;;;;;;;;5015282;28;20029;-83
2022/07/05 10:08:18;;;;;;;5.22;0.90;;;;;;;;;;5016055;28;20055;-82
2022/07/05 10:11:04;;;;;;;2.13;0.90;;;;;;;;;;5016635;28;20049;-82
2022/07/05 10:13:51;;;;;;;2.13;0.55;;;;;;;;;;5018566;28;20041;-82
2022/07/05 10:16:37;;;;;;;2.22;0.73;;;;;;;;;;5030337;28;20033;-82
2022/07/05 10:19:23;;;;;;;1.80;0.70;;;;;;;;;;5016253;28;20037;-82
2022/07/05 10:22:08;;;;;;;2.03;0.77;;;;;;;;;;5018165;28;20037;-83
2022/07/05 10:24:54;;;;;;;2.42;0.70;;;;;;;;;;5025300;28;20034;-82
2022/07/05 10:27:40;;;;;;;1.70;0.80;;;;;;;;;;5025055;28;20044;-82
2022/07/05 10:30:26;;;;;;;2.17;0.50;;;;;;;;;;5023154;28;20041;-82
2022/07/05 10:33:16;;;;;;;1.77;0.40;;;;;;;;;;5023101;28;20577;-82
2022/07/05 10:36:03;;;;;;;2.65;0.70;;;;;;;;;;5023759;28;20033;-82
2022/07/05 10:38:49;;;;;;;3.05;0.60;;;;;;;;;;5036900;28;20500;-83
2022/07/05 10:41:34;;;;;;;1.55;0.40;;;;;;;;;;5023863;28;20045;-82
2022/07/05 10:44:31;;;;;;;1.15;0.65;;;;;;;;;;5023751;28;20033;-82
2022/07/05 10:47:18;;;;;;;1.83;0.60;;;;;;;;;;5024314;28;20100;-82
2022/07/05 10:50:04;;;;;;;2.03;0.60;;;;;;;;;;5024073;28;20080;-82
2022/07/05 10:53:02;;;;;;;2.05;0.68;;;;;;;;;;5035611;28;20124;-82
2022/07/05 10:56:04;;;;;;;1.33;0.50;;;;;;;;;;5023788;28;20045;-82
2022/07/05 10:58:50;;;;;;;1.38;0.50;;;;;;;;;;5039032;28;20590;-82
2022/07/05 11:01:37;;;;;;;1.67;0.88;;;;;;;;;;5023496;28;20056;-82
2022/07/05 11:04:27;;;;;;;2.70;0.40;;;;;;;;;;5036918;28;20037;-82
2022/07/05 11:07:12;;;;;;;1.13;0.50;;;;;;;;;;5023899;28;20491;-82
2022/07/05 11:09:59;;;;;;;2.08;0.70;;;;;;;;;;5024792;28;20050;-82
2022/07/05 11:12:45;;;;;;;0.95;0.50;;;;;;;;;;5036753;28;20103;-82
2022/07/05 11:15:31;;;;;;;1.65;0.70;;;;;;;;;;5022486;28;20046;-83
2022/07/05 11:18:23;;;;;;;1.55;0.60;;;;;;;;;;5024561;28;20038;-82
2022/07/05 11:21:19;;;;;;;1.73;0.60;;;;;;;;;;5036503;28;20037;-83
2022/07/05 11:24:27;;;;;;;1.95;0.63;;;;;;;;;;5022950;28;20061;-83
2022/07/05 11:27:13;;;;;;;3.42;0.52;;;;;;;;;;5023559;28;20412;-83
2022/07/05 11:29:59;;;;;;;2.30;0.50;;;;;;;;;;5037219;28;20045;-83
2022/07/05 11:32:45;;;;;;;0.98;0.28;;;;;;;;;;5023068;28;20095;-82
2022/07/05 11:35:34;;;;;;;1.02;0.30;;;;;;;;;;5032710;28;20537;-82
2022/07/05 11:38:21;;;;;;;3.00;0.60;;;;;;;;;;5020285;28;20563;-82
2022/07/05 11:41:11;;;;;;;1.33;0.73;;;;;;;;;;5020372;28;20041;-83
2022/07/05 11:43:58;;;;;;;3.88;0.70;;;;;;;;;;5019827;28;20037;-82
2022/07/05 11:46:44;;;;;;;1.80;0.35;;;;;;;;;;5019993;28;20033;-83
2022/07/05 11:49:30;;;;;;;1.38;0.52;;;;;;;;;;5020087;28;20038;-83
2022/07/05 11:52:16;;;;;;;1.08;0.45;;;;;;;;;;5020002;28;20045;-83
2022/07/05 11:55:09;;;;;;;2.88;0.52;;;;;;;;;;5019324;28;20038;-83
2022/07/05 11:57:56;;;;;;;1.63;0.40;;;;;;;;;;5033310;28;20415;-82
2022/07/05 12:00:42;;;;;;;1.05;0.40;;;;;;;;;;5032947;28;20048;-83
2022/07/05 12:03:28;;;;;;;0.75;0.40;;;;;;;;;;5034141;28;20037;-82
2022/07/05 12:06:15;;;;;;;1.70;0.57;;;;;;;;;;5019567;28;20091;-83
2022/07/05 12:09:04;;;;;;;2.03;0.60;;;;;;;;;;5033713;28;20440;-82
2022/07/05 12:14:57;;;;;;;1.63;0.70;;;;;;;;;;5032815;28;20037;-83
2022/07/05 12:17:44;;;;;;;0.98;0.40;;;;;;;;;;5018966;28;20041;-83
2022/07/05 12:20:38;;;;;;;1.67;0.50;;;;;;;;;;4999629;28;20046;-83
2022/07/05 12:23:27;;;;;;;1.02;0.40;;;;;;;;;;5012882;28;20128;-83
2022/07/05 12:26:14;;;;;;;1.63;0.73;;;;;;;;;;5000438;28;20049;-83
2022/07/05 12:28:59;;;;;;;0.85;0.32;;;;;;;;;;5012459;28;20065;-83
2022/07/05 12:31:58;;;;;;;1.02;0.55;;;;;;;;;;4999543;28;20037;-83
2022/07/05 12:34:44;;;;;;;1.15;0.50;;;;;;;;;;5012808;28;20038;-83
2022/07/05 12:37:31;;;;;;;1.55;0.68;;;;;;;;;;5000605;28;20042;-83
2022/07/05 12:40:17;;;;;;;1.13;0.47;;;;;;;;;;4998811;28;20061;-83
2022/07/05 12:43:06;;;;;;;1.23;0.40;;;;;;;;;;5000013;28;20133;-82
2022/07/05 12:46:00;;;;;;;1.27;0.40;;;;;;;;;;5011249;28;20030;-82
2022/07/05 12:48:51;;;;;;;1.33;0.30;;;;;;;;;;5012318;28;20462;-83
2022/07/05 12:51:38;;;;;;;0.70;0.30;;;;;;;;;;5012434;28;20038;-83
2022/07/05 13:00:33;;;;;;;2.08;0.77;;;;;;;;;;5001320;28;20038;-83
2022/07/05 13:03:19;;;;;;;3.40;0.50;;;;;;;;;;4997864;28;20508;-82
2022/07/05 13:06:05;;;;;;;0.95;0.50;;;;;;;;;;4999655;28;20042;-83
2022/07/05 13:08:57;;;;;;;0.98;0.52;;;;;;;;;;4998792;28;20398;-82
2022/07/05 13:11:43;;;;;;;1.08;0.40;;;;;;;;;;4999751;28;20129;-83
2022/07/05 13:14:29;;;;;;;1.00;0.57;;;;;;;;;;4999389;28;20042;-83
2022/07/05 13:17:23;;;;;;;1.70;0.50;;;;;;;;;;5012813;28;20037;-83
2022/07/05 13:20:09;;;;;;;0.90;0.50;;;;;;;;;;5013558;28;20451;-83
2022/07/05 13:22:55;;;;;;;0.77;0.40;;;;;;;;;;5000320;28;20042;-83
2022/07/05 13:25:40;;;;;;;1.67;0.47;;;;;;;;;;5012051;28;20512;-82
2022/07/05 13:28:26;;;;;;;0.90;0.55;;;;;;;;;;5011661;28;20041;-83
2022/07/05 13:31:13;;;;;;;0.95;0.30;;;;;;;;;;5012597;28;20045;-83
2022/07/05 13:33:59;;;;;;;1.45;0.60;;;;;;;;;;5012602;28;20089;-82
2022/07/05 13:36:45;;;;;;;1.58;0.40;;;;;;;;;;5011074;28;20034;-83
2022/07/05 13:39:30;;;;;;;1.38;0.40;;;;;;;;;;5012172;28;20049;-83
2022/07/05 13:42:16;;;;;;;0.80;0.40;;;;;;;;;;5011438;28;20100;-83
2022/07/05 13:45:02;;;;;;;0.80;0.40;;;;;;;;;;5011206;28;20038;-83
2022/07/05 13:47:48;;;;;;;1.02;0.52;;;;;;;;;;5010933;28;20065;-83
2022/07/05 13:50:37;;;;;;;1.58;0.40;;;;;;;;;;5011315;28;20524;-83
2022/07/05 13:53:22;;;;;;;1.38;0.57;;;;;;;;;;5012126;28;20040;-83
2022/07/05 13:56:09;;;;;;;1.17;0.40;;;;;;;;;;5011204;28;20469;-83
2022/07/05 13:58:56;;;;;;;1.27;0.38;;;;;;;;;;5012209;28;20041;-83
2022/07/05 14:01:41;;;;;;;1.38;0.40;;;;;;;;;;5010724;28;20076;-83
2022/07/05 14:04:29;;;;;;;2.28;0.80;;;;;;;;;;5011173;28;20512;-83
2022/07/05 14:07:16;;;;;;;2.08;0.50;;;;;;;;;;5009161;28;20051;-83
2022/07/05 14:10:05;;;;;;;1.40;0.55;;;;;;;;;;5031368;28;20057;-83
2022/07/05 14:12:50;;;;;;;1.23;0.60;;;;;;;;;;5017486;28;20092;-83
2022/07/05 14:15:36;;;;;;;2.90;0.73;;;;;;;;;;5031325;28;20041;-83
2022/07/05 14:18:24;;;;;;;1.23;0.50;;;;;;;;;;5031508;28;20053;-83
2022/07/05 14:21:14;;;;;;;2.10;0.52;;;;;;;;;;5031959;28;20026;-83
2022/07/05 14:24:00;;;;;;;1.95;0.47;;;;;;;;;;5030896;28;20041;-83
2022/07/05 14:26:46;;;;;;;2.20;0.52;;;;;;;;;;5031134;28;20037;-82
2022/07/05 14:29:32;;;;;;;1.63;0.60;;;;;;;;;;5031128;28;20041;-83
2022/07/05 14:32:17;;;;;;;1.55;0.52;;;;;;;;;;5031503;28;20084;-83
2022/07/05 14:35:04;;;;;;;1.15;0.50;;;;;;;;;;5030878;28;20049;-83
2022/07/05 14:37:50;;;;;;;1.30;0.80;;;;;;;;;;5016773;28;20043;-83
2022/07/05 14:40:36;;;;;;;1.65;0.57;;;;;;;;;;5030792;28;20057;-83
2022/07/05 14:43:21;;;;;;;1.55;0.50;;;;;;;;;;5031369;28;20033;-83
2022/07/05 14:46:11;;;;;;;1.73;0.50;;;;;;;;;;5016730;28;20049;-83
2022/07/05 14:48:57;;;;;;;1.77;0.88;;;;;;;;;;5017733;28;20038;-83
2022/07/05 14:51:43;;;;;;;1.30;0.50;;;;;;;;;;5017918;28;20053;-83
2022/07/05 14:54:29;;;;;;;1.40;0.50;;;;;;;;;;5018389;28;20117;-83
2022/07/05 14:57:15;;;;;;;1.65;0.47;;;;;;;;;;5018345;28;20037;-83
2022/07/05 15:00:01;;;;;;;1.00;0.40;;;;;;;;;;5015979;28;20041;-83
2022/07/05 15:02:46;;;;;;;1.42;0.70;;;;;;;;;;5028910;28;20033;-83
2022/07/05 15:05:32;;;;;;;2.17;0.50;;;;;;;;;;5015832;28;20096;-83
2022/07/05 15:08:22;;;;;;;1.70;0.47;;;;;;;;;;5017766;28;20054;-83
2022/07/05 15:11:09;;;;;;;2.28;0.98;;;;;;;;;;5033954;28;20550;-83
2022/07/05 15:13:55;;;;;;;1.13;0.63;;;;;;;;;;5020754;28;20037;-83
2022/07/05 15:16:40;;;;;;;1.35;0.50;;;;;;;;;;5019415;28;20076;-83
2022/07/05 15:19:27;;;;;;;1.65;0.57;;;;;;;;;;5021016;28;20045;-83
2022/07/05 15:22:14;;;;;;;1.13;0.85;;;;;;;;;;5019429;28;20038;-83
2022/07/05 15:25:00;;;;;;;0.95;0.30;;;;;;;;;;5020825;28;20049;-83
2022/07/05 15:27:46;;;;;;;0.95;0.43;;;;;;;;;;5021735;28;20040;-83
2022/07/05 15:30:32;;;;;;;0.65;0.28;;;;;;;;;;5019159;28;20045;-82
2022/07/05 15:33:23;;;;;;;1.30;0.57;;;;;;;;;;5033815;28;20038;-83